Time;durP1;ratioP1;P1;durP2;ratioP2;P2;SDS_P1;SDS_P2;PMS_P1;PMS_P2;Temp;Humidity;BMP_temperature;BMP_pressure;BME280_temperature;BME280_humidity;BME280_pressure;Samples;Min_cycle;Max_cycle;Signal;HPM_P1;HPM_P2
2022/10/01 00:01:49;;;;;;;19.23;3.33;;;23.10;99.90;;;;;;4991332;28;20188;-67
2022/10/01 00:04:15;;;;;;;20.30;3.08;;;23.00;99.90;;;;;;4994351;28;20203;-68
2022/10/01 00:06:42;;;;;;;19.27;3.13;;;23.00;99.90;;;;;;5010566;28;20253;-68
2022/10/01 00:09:08;;;;;;;17.45;3.35;;;23.00;99.90;;;;;;4993041;28;20209;-67
2022/10/01 00:11:35;;;;;;;16.75;3.15;;;23.00;99.90;;;;;;5011162;28;20207;-68
2022/10/01 00:14:01;;;;;;;13.75;3.15;;;22.90;99.90;;;;;;5014931;28;20192;-68
2022/10/01 00:16:30;;;;;;;14.32;2.92;;;22.90;99.90;;;;;;4994807;28;20181;-68
2022/10/01 00:18:59;;;;;;;15.68;3.50;;;23.00;99.90;;;;;;4976227;28;20187;-68
2022/10/01 00:21:30;;;;;;;11.80;2.95;;;22.90;99.90;;;;;;5007188;28;20203;-68
2022/10/01 00:24:03;;;;;;;17.83;2.72;;;22.80;99.90;;;;;;4992900;28;20192;-69
2022/10/01 00:26:34;;;;;;;18.30;2.90;;;22.80;99.90;;;;;;5009502;28;20193;-68
2022/10/01 00:29:11;;;;;;;18.60;3.22;;;22.80;99.90;;;;;;5007970;28;20574;-68
2022/10/01 00:31:39;;;;;;;15.73;3.10;;;22.80;99.90;;;;;;4998050;28;20192;-68
2022/10/01 00:34:09;;;;;;;16.15;2.88;;;22.80;99.90;;;;;;5000753;28;20185;-68
2022/10/01 00:36:35;;;;;;;8.50;2.17;;;22.80;99.90;;;;;;5012457;28;20834;-68
2022/10/01 00:39:02;;;;;;;14.45;2.60;;;22.80;99.90;;;;;;5010469;28;20188;-68
2022/10/01 00:41:33;;;;;;;14.85;2.80;;;22.80;99.90;;;;;;5016443;28;20873;-68
2022/10/01 00:44:32;;;;;;;14.18;2.92;;;22.70;99.90;;;;;;5012384;28;20189;-68
2022/10/01 00:47:30;;;;;;;18.92;2.90;;;22.70;99.90;;;;;;4997050;28;20279;-68
2022/10/01 00:50:31;;;;;;;15.77;2.83;;;22.60;99.90;;;;;;5006420;28;20216;-68
2022/10/01 00:53:07;;;;;;;15.00;2.75;;;22.60;99.90;;;;;;4988632;28;20615;-68
2022/10/01 00:55:47;;;;;;;12.73;2.90;;;22.60;99.90;;;;;;4980384;28;20252;-68
2022/10/01 00:58:14;;;;;;;19.95;3.15;;;22.60;99.90;;;;;;5006281;28;20200;-68
2022/10/01 01:00:42;;;;;;;20.92;3.05;;;22.60;99.90;;;;;;5019358;28;20280;-68
2022/10/01 01:03:10;;;;;;;16.67;2.58;;;22.60;99.90;;;;;;5010003;28;20185;-68
2022/10/01 01:05:38;;;;;;;16.75;3.30;;;22.60;99.90;;;;;;5009175;28;20181;-68
2022/10/01 01:08:07;;;;;;;15.05;2.80;;;22.60;99.90;;;;;;5004930;28;20216;-68
2022/10/01 01:11:29;;;;;;;18.02;2.63;;;22.50;99.90;;;;;;4999423;28;20279;-68
2022/10/01 01:14:26;;;;;;;17.50;3.53;;;22.40;99.90;;;;;;4978382;28;20927;-68
2022/10/01 01:17:09;;;;;;;14.00;2.67;;;22.40;99.90;;;;;;5003809;28;20207;-68
2022/10/01 01:20:01;;;;;;;16.00;2.53;;;22.40;99.90;;;;;;5016554;28;20308;-68
2022/10/01 01:22:40;;;;;;;11.10;2.85;;;22.40;99.90;;;;;;4994503;28;20188;-68
2022/10/01 01:25:17;;;;;;;21.98;2.95;;;22.40;99.90;;;;;;4999884;28;20199;-68
2022/10/01 01:28:23;;;;;;;15.00;2.92;;;22.40;99.90;;;;;;5009884;28;20215;-68
2022/10/01 01:30:56;;;;;;;16.95;2.90;;;22.40;99.90;;;;;;4990518;28;20196;-68
2022/10/01 01:33:27;;;;;;;18.42;2.80;;;22.40;99.90;;;;;;4983434;28;20189;-68
2022/10/01 01:36:19;;;;;;;12.88;3.25;;;22.40;99.90;;;;;;5011677;28;20278;-68
2022/10/01 01:38:56;;;;;;;16.70;2.93;;;22.40;99.90;;;;;;5001967;28;20203;-68
2022/10/01 01:41:28;;;;;;;25.48;3.50;;;22.40;99.90;;;;;;4972745;28;20184;-68
2022/10/01 01:44:01;;;;;;;13.95;2.75;;;22.50;99.90;;;;;;4992421;28;20186;-68
2022/10/01 01:46:33;;;;;;;10.38;2.92;;;22.50;99.90;;;;;;4992728;28;20186;-68
2022/10/01 01:49:03;;;;;;;15.38;2.40;;;22.50;99.90;;;;;;5001166;28;20258;-68
2022/10/01 01:51:45;;;;;;;19.40;2.92;;;22.50;99.90;;;;;;5001563;28;20215;-68
2022/10/01 01:54:11;;;;;;;12.38;2.60;;;22.50;99.90;;;;;;5016065;28;20832;-68
2022/10/01 01:56:38;;;;;;;20.45;3.05;;;22.50;99.90;;;;;;5031357;28;20188;-68
2022/10/01 01:59:07;;;;;;;16.17;3.20;;;22.50;99.90;;;;;;5033221;28;20645;-68
2022/10/01 02:01:45;;;;;;;15.48;2.78;;;22.40;99.90;;;;;;5018698;28;20239;-68
2022/10/01 02:04:32;;;;;;;24.00;3.30;;;22.40;99.90;;;;;;4998407;28;20227;-68
2022/10/01 02:07:32;;;;;;;15.55;2.97;;;22.40;99.90;;;;;;5014710;28;20196;-68
2022/10/01 02:10:42;;;;;;;14.60;3.10;;;22.40;99.90;;;;;;5010364;28;20256;-68
2022/10/01 02:13:43;;;;;;;13.88;2.85;;;22.40;99.90;;;;;;5011993;28;20635;-68
2022/10/01 02:16:44;;;;;;;20.75;3.17;;;22.40;99.90;;;;;;5013062;28;20215;-68
2022/10/01 02:19:32;;;;;;;14.55;2.90;;;22.30;99.90;;;;;;5013167;28;20185;-68
2022/10/01 02:22:15;;;;;;;13.00;3.00;;;22.30;99.90;;;;;;5016854;28;20232;-68
2022/10/01 02:24:51;;;;;;;17.55;2.90;;;22.30;99.90;;;;;;5009698;28;20757;-68
2022/10/01 02:27:43;;;;;;;18.90;3.05;;;22.30;99.90;;;;;;5014426;28;20196;-68
2022/10/01 02:30:14;;;;;;;20.60;2.63;;;22.30;99.90;;;;;;5012916;28;20231;-68
2022/10/01 02:32:46;;;;;;;16.85;2.80;;;22.20;99.90;;;;;;5022123;28;20208;-68
2022/10/01 02:35:18;;;;;;;14.93;3.28;;;22.20;99.90;;;;;;5006582;28;20193;-68
2022/10/01 02:37:50;;;;;;;15.52;2.90;;;22.20;99.90;;;;;;5012938;28;20189;-68
2022/10/01 02:40:27;;;;;;;16.35;3.03;;;22.20;99.90;;;;;;5018032;28;20200;-68
2022/10/01 02:43:16;;;;;;;9.68;2.85;;;22.20;99.90;;;;;;5001807;28;20234;-68
2022/10/01 02:45:50;;;;;;;18.65;2.88;;;22.20;99.90;;;;;;5008274;28;20193;-69
2022/10/01 02:48:17;;;;;;;28.83;3.65;;;22.20;99.90;;;;;;4999347;28;20716;-68
2022/10/01 02:50:56;;;;;;;11.10;3.35;;;22.20;99.90;;;;;;5011157;28;20278;-68
2022/10/01 02:53:39;;;;;;;19.92;3.47;;;22.20;99.90;;;;;;5027676;28;20192;-68
2022/10/01 02:56:08;;;;;;;14.80;2.90;;;22.20;99.90;;;;;;5027066;28;20184;-68
2022/10/01 02:58:35;;;;;;;12.35;3.13;;;22.10;99.90;;;;;;5020938;28;20207;-68
2022/10/01 03:01:02;;;;;;;16.13;2.72;;;22.10;99.90;;;;;;5012375;28;20271;-68
2022/10/01 03:03:32;;;;;;;11.73;2.85;;;22.10;99.90;;;;;;5012559;28;20189;-68
2022/10/01 03:05:58;;;;;;;17.55;3.15;;;22.10;99.90;;;;;;5012255;28;20181;-68
2022/10/01 03:08:25;;;;;;;17.08;3.53;;;22.10;99.90;;;;;;5011690;28;20188;-68
2022/10/01 03:10:51;;;;;;;14.07;2.67;;;22.10;99.90;;;;;;5015473;28;20217;-68
2022/10/01 03:13:18;;;;;;;18.38;3.25;;;22.00;99.90;;;;;;5006565;28;20196;-68
2022/10/01 03:15:47;;;;;;;17.20;2.90;;;22.00;99.90;;;;;;4994302;28;20188;-68
2022/10/01 03:18:13;;;;;;;15.60;2.63;;;22.00;99.90;;;;;;5012200;28;20188;-68
2022/10/01 03:20:40;;;;;;;18.98;3.08;;;21.90;99.90;;;;;;5002692;28;20789;-68
2022/10/01 03:23:06;;;;;;;13.80;3.17;;;22.00;99.90;;;;;;5010626;28;20196;-68
2022/10/01 03:25:32;;;;;;;15.98;3.20;;;22.00;99.90;;;;;;5011609;28;20193;-68
2022/10/01 03:27:58;;;;;;;12.40;2.60;;;22.00;99.90;;;;;;5012025;28;20188;-68
2022/10/01 03:30:25;;;;;;;27.08;3.47;;;21.90;99.90;;;;;;5011753;28;20217;-68
2022/10/01 03:32:52;;;;;;;11.17;2.93;;;21.90;99.90;;;;;;4994034;28;20212;-68
2022/10/01 03:35:19;;;;;;;16.30;2.88;;;21.90;99.90;;;;;;5010790;28;20270;-68
2022/10/01 03:37:46;;;;;;;15.85;3.17;;;21.90;99.90;;;;;;5011099;28;20192;-68
2022/10/01 03:40:13;;;;;;;14.02;2.70;;;21.90;99.90;;;;;;5011305;28;20201;-68
2022/10/01 03:42:40;;;;;;;12.90;3.03;;;21.90;99.90;;;;;;5026590;28;20181;-68
2022/10/01 03:45:07;;;;;;;17.15;3.15;;;21.90;99.90;;;;;;5009518;28;20270;-68
2022/10/01 03:47:34;;;;;;;18.90;2.90;;;21.90;99.90;;;;;;5005637;28;20188;-68
2022/10/01 03:50:00;;;;;;;23.70;3.08;;;21.90;99.90;;;;;;5004069;28;20541;-68
2022/10/01 03:52:26;;;;;;;14.23;2.72;;;21.90;99.90;;;;;;5026616;28;20177;-68
2022/10/01 03:54:53;;;;;;;16.70;2.63;;;21.90;99.90;;;;;;5011358;28;20180;-68
2022/10/01 03:57:19;;;;;;;14.32;3.40;;;21.80;99.90;;;;;;4986379;28;20726;-68
2022/10/01 03:59:46;;;;;;;18.92;3.50;;;21.80;99.90;;;;;;5001792;28;20591;-68
2022/10/01 04:02:14;;;;;;;18.15;3.65;;;21.80;99.90;;;;;;5024071;28;20936;-68
2022/10/01 04:04:41;;;;;;;18.80;3.58;;;21.80;99.90;;;;;;5018160;28;20181;-68
2022/10/01 04:07:08;;;;;;;16.35;3.60;;;21.80;99.90;;;;;;4993749;28;20240;-68
2022/10/01 04:09:36;;;;;;;15.20;2.72;;;21.80;99.90;;;;;;5017865;28;20205;-68
2022/10/01 04:12:03;;;;;;;13.25;2.80;;;21.80;99.90;;;;;;5011085;28;20219;-68
2022/10/01 04:14:30;;;;;;;13.90;3.13;;;21.70;99.90;;;;;;5010851;28;20181;-68
2022/10/01 04:16:56;;;;;;;13.30;2.63;;;21.80;99.90;;;;;;5010879;28;20197;-68
2022/10/01 04:19:22;;;;;;;18.77;3.50;;;21.80;99.90;;;;;;5013367;28;20243;-68
2022/10/01 04:21:48;;;;;;;20.95;2.67;;;21.80;99.90;;;;;;5009539;28;20575;-68
2022/10/01 04:24:15;;;;;;;8.67;2.30;;;21.70;99.90;;;;;;5010775;28;20287;-68
2022/10/01 04:26:41;;;;;;;16.07;3.10;;;21.80;99.90;;;;;;4993201;28;20188;-68
2022/10/01 04:29:08;;;;;;;14.65;2.90;;;21.80;99.90;;;;;;5016893;28;20216;-68
2022/10/01 04:31:38;;;;;;;21.50;3.10;;;21.80;99.90;;;;;;5003950;28;20207;-68
2022/10/01 04:34:05;;;;;;;17.55;3.28;;;21.90;99.90;;;;;;4999273;28;20181;-68
2022/10/01 04:36:31;;;;;;;15.80;3.17;;;21.90;99.90;;;;;;5015853;28;20193;-68
2022/10/01 04:38:58;;;;;;;21.77;3.25;;;21.90;99.90;;;;;;5010400;28;20188;-68
2022/10/01 04:41:25;;;;;;;11.43;2.78;;;21.90;99.90;;;;;;5010545;28;20193;-68
2022/10/01 04:43:51;;;;;;;24.05;3.80;;;21.90;99.90;;;;;;5010404;28;20184;-68
2022/10/01 04:46:18;;;;;;;19.67;2.77;;;21.90;99.90;;;;;;5008456;28;20180;-68
2022/10/01 04:48:46;;;;;;;11.93;3.10;;;22.00;99.90;;;;;;5020686;28;20367;-68
2022/10/01 04:51:12;;;;;;;22.05;3.72;;;22.00;99.90;;;;;;4995069;28;20177;-68
2022/10/01 04:53:41;;;;;;;16.58;2.92;;;22.00;99.90;;;;;;5010477;28;20271;-68
2022/10/01 04:56:07;;;;;;;21.60;3.13;;;22.00;99.90;;;;;;5017231;28;20188;-68
2022/10/01 04:58:34;;;;;;;20.98;3.47;;;22.00;99.90;;;;;;5010043;28;20270;-68
2022/10/01 05:01:00;;;;;;;17.23;3.20;;;22.00;99.90;;;;;;5007914;28;20208;-68
2022/10/01 05:03:27;;;;;;;17.05;3.08;;;22.10;99.90;;;;;;5011674;28;20181;-68
2022/10/01 05:05:54;;;;;;;12.63;2.70;;;22.10;99.90;;;;;;5009690;28;20232;-68
2022/10/01 05:08:23;;;;;;;10.50;2.85;;;22.20;99.90;;;;;;5025177;28;20685;-68
2022/10/01 05:10:49;;;;;;;17.35;3.00;;;22.20;99.90;;;;;;5009492;28;20181;-68
2022/10/01 05:13:15;;;;;;;22.58;3.78;;;22.30;99.90;;;;;;5024836;28;20205;-68
2022/10/01 05:15:41;;;;;;;10.05;2.72;;;22.30;99.90;;;;;;4997650;28;20191;-68
2022/10/01 05:18:08;;;;;;;12.87;3.00;;;22.40;99.90;;;;;;5009800;28;20563;-68
2022/10/01 05:20:36;;;;;;;18.15;3.15;;;22.40;99.90;;;;;;5010029;28;20185;-68
2022/10/01 05:23:02;;;;;;;19.58;3.47;;;22.50;99.90;;;;;;5008452;28;20279;-68
2022/10/01 05:25:28;;;;;;;19.80;3.00;;;22.60;99.90;;;;;;5009556;28;20197;-68
2022/10/01 05:28:05;;;;;;;13.18;2.90;;;22.60;99.90;;;;;;5007423;28;20247;-68
2022/10/01 05:30:32;;;;;;;27.17;4.18;;;22.70;99.90;;;;;;5008238;28;20227;-68
2022/10/01 05:33:02;;;;;;;16.83;3.15;;;22.90;99.90;;;;;;5009974;28;20213;-68
2022/10/01 05:35:29;;;;;;;12.18;2.53;;;23.00;99.90;;;;;;5009093;28;20192;-68
2022/10/01 05:38:01;;;;;;;13.68;3.22;;;23.00;99.90;;;;;;5006205;28;20592;-68
2022/10/01 05:40:29;;;;;;;9.23;2.65;;;23.00;99.90;;;;;;5010117;28;20193;-68
2022/10/01 05:42:58;;;;;;;14.98;3.20;;;22.90;99.90;;;;;;5015593;28;20196;-68
2022/10/01 05:45:27;;;;;;;18.60;3.53;;;23.10;99.90;;;;;;4991837;28;20599;-68
2022/10/01 05:48:05;;;;;;;22.13;3.30;;;23.10;99.90;;;;;;5008277;28;20192;-68
2022/10/01 05:50:39;;;;;;;17.85;2.90;;;23.20;99.90;;;;;;5004116;28;20209;-68
2022/10/01 05:53:14;;;;;;;19.73;2.88;;;23.20;99.90;;;;;;5010482;28;20185;-68
2022/10/01 05:55:41;;;;;;;21.73;2.85;;;23.30;99.90;;;;;;4983797;28;20300;-68
2022/10/01 05:58:11;;;;;;;22.40;3.30;;;23.30;99.90;;;;;;5009697;28;20678;-68
2022/10/01 06:00:40;;;;;;;18.63;2.90;;;23.30;99.90;;;;;;5009793;28;20534;-68
2022/10/01 06:03:07;;;;;;;15.30;3.00;;;23.40;99.90;;;;;;5009632;28;20235;-68
2022/10/01 06:05:35;;;;;;;21.63;2.88;;;23.40;99.90;;;;;;5014284;28;20200;-68
2022/10/01 06:08:05;;;;;;;13.80;3.05;;;23.40;99.90;;;;;;5016070;28;20185;-68
2022/10/01 06:10:32;;;;;;;15.02;2.97;;;23.50;99.90;;;;;;5005847;28;20212;-68
2022/10/01 06:13:06;;;;;;;19.77;3.70;;;23.50;99.90;;;;;;5009508;28;20220;-68
2022/10/01 06:15:37;;;;;;;20.42;2.83;;;23.60;99.90;;;;;;5008239;28;20177;-68
2022/10/01 06:18:08;;;;;;;22.75;3.65;;;23.60;99.90;;;;;;4980829;28;20189;-68
2022/10/01 06:20:35;;;;;;;17.52;3.13;;;23.60;99.90;;;;;;4976476;28;20193;-68
2022/10/01 06:23:06;;;;;;;13.15;2.42;;;23.70;99.90;;;;;;4972384;28;20182;-68
2022/10/01 06:25:33;;;;;;;17.90;3.35;;;23.80;99.90;;;;;;4989701;28;20280;-68
2022/10/01 06:28:01;;;;;;;14.90;2.78;;;23.90;99.90;;;;;;4989683;28;20185;-68
2022/10/01 06:30:30;;;;;;;26.05;3.13;;;23.90;99.90;;;;;;4991172;28;20216;-68
2022/10/01 06:33:10;;;;;;;22.30;2.92;;;24.00;99.90;;;;;;5016189;28;20201;-68
2022/10/01 06:35:48;;;;;;;13.90;3.10;;;24.10;99.90;;;;;;5012679;28;20520;-68
2022/10/01 06:38:18;;;;;;;13.50;3.00;;;24.20;99.90;;;;;;5012698;28;20259;-68
2022/10/01 06:40:59;;;;;;;17.73;3.10;;;24.30;99.90;;;;;;5011417;28;20595;-68
2022/10/01 06:43:28;;;;;;;19.65;3.22;;;24.30;99.90;;;;;;4994995;28;20643;-68
2022/10/01 06:45:56;;;;;;;17.02;3.47;;;24.50;99.90;;;;;;5011162;28;20199;-68
2022/10/01 06:48:22;;;;;;;13.60;2.63;;;24.60;99.90;;;;;;4994917;28;20185;-68
2022/10/01 06:50:51;;;;;;;23.88;3.65;;;24.70;99.90;;;;;;5011596;28;20197;-68
2022/10/01 06:53:18;;;;;;;15.88;3.22;;;24.80;99.90;;;;;;5012552;28;20526;-68
2022/10/01 06:55:45;;;;;;;11.65;3.17;;;24.80;99.90;;;;;;5012336;28;20531;-68
2022/10/01 06:58:21;;;;;;;26.08;3.60;;;24.90;99.90;;;;;;5012447;28;20184;-68
2022/10/01 07:00:49;;;;;;;20.25;3.60;;;25.00;99.90;;;;;;4996020;28;20945;-68
2022/10/01 07:03:21;;;;;;;22.55;3.38;;;25.00;99.90;;;;;;5014337;28;20207;-68
2022/10/01 07:05:49;;;;;;;26.33;3.95;;;25.10;99.90;;;;;;5013931;28;20183;-68
2022/10/01 07:08:16;;;;;;;19.83;3.83;;;25.10;99.90;;;;;;5013773;28;20181;-68
2022/10/01 07:10:44;;;;;;;17.88;3.80;;;25.20;99.90;;;;;;5010682;28;20579;-68
2022/10/01 07:13:17;;;;;;;19.13;4.10;;;25.40;99.90;;;;;;5008929;28;20180;-68
2022/10/01 07:15:44;;;;;;;21.60;4.05;;;25.30;99.90;;;;;;4985155;28;20189;-68
2022/10/01 07:18:13;;;;;;;16.77;3.40;;;25.40;99.90;;;;;;4993070;28;20631;-68
2022/10/01 07:20:40;;;;;;;17.40;3.53;;;25.40;99.90;;;;;;5018117;28;20189;-68
2022/10/01 07:23:16;;;;;;;14.82;3.30;;;25.50;99.90;;;;;;5011751;28;20193;-68
2022/10/01 07:25:44;;;;;;;19.08;4.03;;;25.60;99.90;;;;;;5007642;28;20196;-68
2022/10/01 07:28:18;;;;;;;16.20;3.28;;;25.60;99.90;;;;;;5003348;28;20224;-68
2022/10/01 07:31:16;;;;;;;16.67;3.58;;;25.60;99.90;;;;;;5011991;28;20204;-68
2022/10/01 07:33:47;;;;;;;15.27;3.70;;;25.60;99.90;;;;;;4970170;28;20245;-68
2022/10/01 07:36:14;;;;;;;17.48;3.55;;;25.70;99.90;;;;;;5007737;28;20190;-68
2022/10/01 07:38:43;;;;;;;16.70;3.50;;;25.70;99.90;;;;;;4993711;28;20173;-68
2022/10/01 07:41:10;;;;;;;16.05;3.85;;;25.80;99.90;;;;;;5010194;28;20300;-68
2022/10/01 07:43:45;;;;;;;19.40;3.38;;;25.80;99.90;;;;;;5016686;28;20199;-68
2022/10/01 07:46:28;;;;;;;19.88;3.75;;;25.80;99.90;;;;;;5012669;28;20215;-68
2022/10/01 07:48:54;;;;;;;13.77;3.35;;;25.80;99.90;;;;;;5004972;28;20287;-68
2022/10/01 07:51:34;;;;;;;16.63;3.35;;;25.90;99.90;;;;;;5004787;28;20316;-68
2022/10/01 07:54:02;;;;;;;20.52;3.58;;;25.90;99.90;;;;;;5005986;28;20258;-68
2022/10/01 07:56:31;;;;;;;13.68;3.42;;;26.00;99.90;;;;;;5012403;28;20239;-68
2022/10/01 07:59:04;;;;;;;19.30;3.60;;;26.00;99.90;;;;;;5030691;28;20180;-68
2022/10/01 08:01:38;;;;;;;15.13;3.25;;;26.00;99.90;;;;;;5007227;28;20226;-68
2022/10/01 08:06:59;;;;;;;21.40;3.88;;;26.10;99.90;;;;;;5000188;28;20192;-68
2022/10/01 08:09:25;;;;;;;21.65;3.58;;;26.10;99.90;;;;;;4994248;28;20227;-68
2022/10/01 08:11:53;;;;;;;19.08;3.72;;;26.20;99.90;;;;;;5006274;28;20201;-68
2022/10/01 08:14:19;;;;;;;16.73;3.58;;;26.20;99.90;;;;;;4975140;28;20180;-68
2022/10/01 08:16:46;;;;;;;23.35;4.03;;;26.30;99.90;;;;;;4994873;28;20192;-68
2022/10/01 08:19:14;;;;;;;15.02;3.40;;;26.40;99.90;;;;;;5004260;28;20196;-68
2022/10/01 08:21:45;;;;;;;18.80;4.00;;;26.40;99.90;;;;;;4990782;28;20196;-68
2022/10/01 08:24:12;;;;;;;15.93;3.38;;;26.50;99.90;;;;;;5005440;28;20624;-65
2022/10/01 08:26:39;;;;;;;16.73;3.33;;;26.50;99.90;;;;;;5014301;28;20924;-68
2022/10/01 08:29:05;;;;;;;14.73;3.78;;;26.60;99.90;;;;;;5009233;28;20224;-65
2022/10/01 08:31:31;;;;;;;22.73;3.72;;;26.50;99.90;;;;;;5005297;28;20329;-66
2022/10/01 08:34:00;;;;;;;18.13;3.38;;;26.50;99.90;;;;;;5008335;28;20271;-66
2022/10/01 08:36:27;;;;;;;27.00;3.97;;;26.60;99.90;;;;;;5001876;28;20196;-66
2022/10/01 08:38:54;;;;;;;20.42;3.85;;;26.60;99.90;;;;;;4998656;28;20605;-66
2022/10/01 08:41:59;;;;;;;22.73;4.03;;;26.70;99.90;;;;;;5010229;28;20187;-66
2022/10/01 08:44:40;;;;;;;21.20;3.90;;;26.80;99.90;;;;;;5010050;28;20191;-66
2022/10/01 08:47:44;;;;;;;18.92;3.33;;;26.80;99.90;;;;;;5014645;28;20211;-67
2022/10/01 08:50:32;;;;;;;19.30;3.63;;;26.80;99.90;;;;;;5000780;28;20204;-67
2022/10/01 08:53:04;;;;;;;20.02;3.53;;;26.80;99.90;;;;;;5020591;28;20314;-67
2022/10/01 08:55:37;;;;;;;18.48;3.70;;;26.90;99.90;;;;;;4985082;28;20188;-67
2022/10/01 08:58:09;;;;;;;20.85;3.83;;;27.10;99.90;;;;;;4990334;28;20186;-67
2022/10/01 09:00:43;;;;;;;18.77;3.90;;;26.90;99.90;;;;;;5028138;28;20188;-67
2022/10/01 09:03:14;;;;;;;19.75;4.22;;;27.00;99.90;;;;;;5015750;28;20547;-66
2022/10/01 09:06:20;;;;;;;19.70;3.83;;;27.00;99.90;;;;;;4977272;28;20184;-67
2022/10/01 09:09:31;;;;;;;19.25;3.55;;;27.00;99.90;;;;;;5004035;28;20571;-67
2022/10/01 09:12:45;;;;;;;20.38;3.85;;;27.30;99.90;;;;;;5005703;28;20808;-67
2022/10/01 09:15:43;;;;;;;20.35;4.28;;;27.30;99.90;;;;;;5005706;28;20188;-67
2022/10/01 09:18:37;;;;;;;24.55;3.72;;;27.50;99.90;;;;;;5002703;28;20534;-67
2022/10/01 09:21:37;;;;;;;26.17;4.18;;;27.60;99.90;;;;;;4998936;28;20184;-67
2022/10/01 09:24:37;;;;;;;28.00;4.70;;;27.60;99.90;;;;;;4966837;28;20619;-67
2022/10/01 09:27:19;;;;;;;18.65;4.20;;;27.90;99.90;;;;;;4906603;29;20199;-67
2022/10/01 09:30:14;;;;;;;20.45;3.50;;;28.00;99.90;;;;;;4989390;28;20223;-66
2022/10/01 09:33:17;;;;;;;27.30;4.10;;;28.00;99.90;;;;;;5012554;28;20189;-67
2022/10/01 09:36:39;;;;;;;21.00;3.83;;;28.20;99.90;;;;;;4991649;28;20202;-67
2022/10/01 09:39:30;;;;;;;18.33;4.00;;;28.40;99.90;;;;;;5011044;28;20196;-67
2022/10/01 09:41:58;;;;;;;15.30;3.72;;;28.60;99.90;;;;;;4990177;28;20189;-67
2022/10/01 09:44:31;;;;;;;14.90;3.92;;;28.70;99.90;;;;;;4990226;28;20624;-67
2022/10/01 09:46:58;;;;;;;21.80;4.05;;;28.80;99.90;;;;;;4995136;28;20235;-68
2022/10/01 09:49:54;;;;;;;22.45;3.80;;;28.80;99.90;;;;;;5004592;28;20215;-67
2022/10/01 09:52:43;;;;;;;26.08;3.83;;;28.90;99.90;;;;;;5003574;28;20201;-67
2022/10/01 09:55:38;;;;;;;23.02;3.63;;;29.00;99.90;;;;;;5010151;28;20621;-67
2022/10/01 09:58:12;;;;;;;20.95;4.00;;;29.20;99.90;;;;;;5003560;28;20251;-67
2022/10/01 10:00:40;;;;;;;19.05;4.13;;;29.20;99.90;;;;;;5007934;28;20173;-67
2022/10/01 10:03:07;;;;;;;13.15;3.20;;;29.20;99.90;;;;;;5009824;28;20188;-67
2022/10/01 10:05:47;;;;;;;17.73;3.63;;;29.30;99.90;;;;;;5003634;28;20192;-67
2022/10/01 10:08:44;;;;;;;19.45;3.65;;;29.40;99.90;;;;;;4997013;28;20192;-67
2022/10/01 10:11:21;;;;;;;17.83;3.58;;;29.60;99.90;;;;;;5006839;28;20255;-67
2022/10/01 10:13:58;;;;;;;19.52;4.00;;;29.50;99.90;;;;;;5007344;28;20195;-67
2022/10/01 10:16:29;;;;;;;25.65;4.50;;;29.80;99.90;;;;;;4989611;28;22269;-67
2022/10/01 10:19:04;;;;;;;24.10;4.65;;;29.90;99.90;;;;;;4995477;28;20200;-68
2022/10/01 10:21:37;;;;;;;23.52;3.85;;;30.20;99.90;;;;;;5014766;28;20197;-67
2022/10/01 10:24:45;;;;;;;21.35;3.85;;;31.90;99.90;;;;;;5004287;28;20193;-68
2022/10/01 10:27:55;;;;;;;17.52;3.78;;;32.80;99.90;;;;;;4989722;28;20220;-67
2022/10/01 10:30:25;;;;;;;20.90;3.80;;;31.80;99.90;;;;;;4975714;28;20300;-68
2022/10/01 10:33:01;;;;;;;22.50;3.80;;;31.20;99.90;;;;;;4980134;28;20192;-67
2022/10/01 10:35:27;;;;;;;20.25;3.83;;;30.80;99.90;;;;;;5001520;28;20650;-67
2022/10/01 10:37:56;;;;;;;14.98;3.53;;;30.80;99.90;;;;;;4978524;28;20188;-67
2022/10/01 10:40:40;;;;;;;20.38;3.60;;;30.70;99.90;;;;;;5010978;28;20655;-67
2022/10/01 10:43:21;;;;;;;20.02;4.43;;;30.60;99.90;;;;;;5012441;28;20542;-67
2022/10/01 10:45:55;;;;;;;24.23;4.47;;;30.80;99.90;;;;;;5009102;28;20751;-67
2022/10/01 10:48:31;;;;;;;25.90;4.13;;;31.20;99.90;;;;;;4993329;28;20417;-67
2022/10/01 10:51:02;;;;;;;20.92;4.00;;;30.60;99.90;;;;;;5011249;28;20424;-67
2022/10/01 10:53:46;;;;;;;18.60;4.38;;;30.20;99.90;;;;;;5011409;28;20423;-67
2022/10/01 10:56:24;;;;;;;20.67;4.10;;;29.90;99.90;;;;;;5011376;28;20421;-67
2022/10/01 10:58:52;;;;;;;15.57;4.03;;;29.80;99.90;;;;;;4991574;28;20438;-67
2022/10/01 11:01:28;;;;;;;16.33;3.60;;;29.70;99.90;;;;;;4991649;28;20418;-67
2022/10/01 11:04:00;;;;;;;24.67;4.07;;;29.70;99.90;;;;;;4992575;28;20185;-67
2022/10/01 11:06:27;;;;;;;22.63;3.65;;;29.60;99.90;;;;;;4992519;28;20196;-67
2022/10/01 11:09:06;;;;;;;22.92;3.83;;;29.70;99.90;;;;;;4975137;28;20224;-67
2022/10/01 11:12:11;;;;;;;15.75;3.58;;;29.60;99.90;;;;;;5002032;28;20820;-66
2022/10/01 11:15:13;;;;;;;20.00;3.85;;;29.40;99.90;;;;;;5012228;28;20188;-67
2022/10/01 11:18:01;;;;;;;19.23;3.50;;;29.40;99.90;;;;;;5011817;28;20266;-67
2022/10/01 11:21:03;;;;;;;19.20;3.85;;;29.40;99.90;;;;;;5010959;28;20284;-67
2022/10/01 11:24:03;;;;;;;16.70;3.33;;;29.50;99.90;;;;;;5011661;28;20266;-67
2022/10/01 11:26:32;;;;;;;15.95;3.00;;;29.50;99.90;;;;;;4994356;28;20890;-67
2022/10/01 11:29:45;;;;;;;15.48;3.55;;;29.30;99.90;;;;;;5010450;28;20213;-67
2022/10/01 11:32:28;;;;;;;15.93;3.72;;;29.30;99.90;;;;;;5010231;28;20188;-67
2022/10/01 11:35:36;;;;;;;18.00;3.70;;;29.40;99.90;;;;;;5010461;28;20189;-67
2022/10/01 11:38:36;;;;;;;23.40;3.55;;;29.40;99.90;;;;;;5011566;28;20213;-67
2022/10/01 11:41:35;;;;;;;19.85;4.00;;;29.40;99.90;;;;;;5010319;28;20192;-67
2022/10/01 11:44:30;;;;;;;22.00;3.40;;;29.50;99.90;;;;;;5009851;28;20648;-67
2022/10/01 11:47:32;;;;;;;23.45;3.42;;;29.30;99.90;;;;;;4974704;28;20228;-67
2022/10/01 11:50:17;;;;;;;25.73;4.07;;;29.20;99.90;;;;;;5002295;28;20251;-67
2022/10/01 11:52:57;;;;;;;25.42;4.38;;;29.20;99.90;;;;;;5007768;28;20974;-67
2022/10/01 11:59:01;;;;;;;26.73;3.92;;;29.20;99.90;;;;;;5015292;28;20177;-67
2022/10/01 12:01:48;;;;;;;16.60;4.07;;;29.10;99.90;;;;;;4964581;28;20724;-67
2022/10/01 12:04:40;;;;;;;22.55;4.40;;;29.20;99.90;;;;;;4984088;28;20189;-67
2022/10/01 12:07:45;;;;;;;19.67;3.40;;;29.20;99.90;;;;;;5010723;28;20617;-67
2022/10/01 12:10:45;;;;;;;20.98;3.38;;;29.10;99.90;;;;;;5011325;28;20220;-67
2022/10/01 12:13:39;;;;;;;14.05;3.25;;;29.10;99.90;;;;;;4991597;28;20242;-67
2022/10/01 12:16:36;;;;;;;20.08;3.78;;;28.90;99.90;;;;;;5008212;28;20865;-67
2022/10/01 12:19:26;;;;;;;14.90;3.55;;;28.90;99.90;;;;;;5019343;28;20184;-67
2022/10/01 12:22:03;;;;;;;23.73;4.03;;;28.90;99.90;;;;;;5006748;28;20186;-67
2022/10/01 12:24:43;;;;;;;19.88;4.38;;;28.90;99.90;;;;;;5017922;28;20192;-67
2022/10/01 12:27:48;;;;;;;18.65;3.47;;;28.90;99.90;;;;;;4991217;28;20196;-67
2022/10/01 12:30:28;;;;;;;21.17;4.03;;;28.90;99.90;;;;;;4998378;28;20240;-67
2022/10/01 12:33:26;;;;;;;14.25;3.83;;;28.90;99.90;;;;;;5008838;28;20193;-67
2022/10/01 12:36:10;;;;;;;25.65;4.15;;;28.90;99.90;;;;;;5019342;28;20187;-67
2022/10/01 12:39:24;;;;;;;22.88;4.53;;;28.90;99.90;;;;;;5015270;28;20197;-66
2022/10/01 12:42:24;;;;;;;19.90;3.80;;;28.70;99.90;;;;;;4995000;28;20227;-67
2022/10/01 12:45:15;;;;;;;20.92;3.53;;;28.60;99.90;;;;;;5015622;28;20201;-66
2022/10/01 12:48:05;;;;;;;26.38;3.88;;;28.60;99.90;;;;;;4974186;28;20185;-67
2022/10/01 12:50:38;;;;;;;13.00;3.78;;;28.50;99.90;;;;;;5015569;28;20235;-67
2022/10/01 12:53:40;;;;;;;19.88;3.67;;;28.50;99.90;;;;;;5014155;28;20896;-66
2022/10/01 12:56:16;;;;;;;22.80;3.78;;;28.60;99.90;;;;;;4990639;28;20612;-66
2022/10/01 12:59:12;;;;;;;16.58;3.63;;;28.50;99.90;;;;;;5006200;28;20279;-66
2022/10/01 13:01:57;;;;;;;30.02;4.25;;;28.40;99.90;;;;;;5004637;28;20185;-66
2022/10/01 13:05:09;;;;;;;24.90;3.78;;;28.30;99.90;;;;;;5001083;28;20177;-66
2022/10/01 13:08:17;;;;;;;19.45;3.85;;;28.20;99.90;;;;;;5013586;28;20304;-66
2022/10/01 13:11:19;;;;;;;21.92;4.00;;;28.20;99.90;;;;;;4999673;28;20217;-66
2022/10/01 13:13:51;;;;;;;17.70;4.03;;;28.20;99.90;;;;;;5020831;28;20195;-67
2022/10/01 13:16:39;;;;;;;23.35;4.53;;;28.20;99.90;;;;;;5000125;28;20935;-66
2022/10/01 13:19:38;;;;;;;18.15;3.50;;;28.10;99.90;;;;;;5012858;28;20287;-67
2022/10/01 13:23:04;;;;;;;19.92;4.07;;;27.90;99.90;;;;;;5009453;28;20196;-66
2022/10/01 13:25:47;;;;;;;18.35;4.47;;;27.90;99.90;;;;;;4963300;28;20236;-66
2022/10/01 13:28:56;;;;;;;21.65;4.05;;;27.90;99.90;;;;;;4973058;28;20190;-66
2022/10/01 13:31:55;;;;;;;20.33;4.13;;;27.90;99.90;;;;;;4993007;28;21980;-66
2022/10/01 13:34:45;;;;;;;17.52;3.80;;;28.00;99.90;;;;;;4966864;28;20646;-66
2022/10/01 13:37:35;;;;;;;23.17;4.88;;;27.80;99.90;;;;;;5001280;28;20265;-66